< < Back
Terminal Aerodrome Forecast


Current Version              Previous Versions:   1  2  3  4  5  6  7  8  9  

Terminal Aerodrome Forecast

410
FTUS42 KCAE 040838 AAB
TAFCAE
TAF AMD
KCAE 040838Z 0409/0506 23008KT P6SM VCSH SCT040 OVC100
     FM041500 25015G23KT P6SM VCSH SCT035 BKN250
     FM050000 24010KT P6SM SCT070 BKN250=

Latest METAR

144
SAUS80 KWBC 041900
MTRCAE
METAR KCAE 041856Z 23008KT 10SM FEW038 OVC150 30/20 A3004 RMK AO2 SLP168
T03000200 $


USA.gov is the U.S. government's official web portal to all federal, state and local government web resources and services.